createdAt,value
2018-04-02T00:00:45.244Z,159301.56
2018-04-02T00:03:12.794Z,159291.81
2018-04-02T00:05:41.497Z,159331.50
2018-04-02T00:08:09.069Z,159341.91
2018-04-02T00:10:36.675Z,159342.55
2018-04-02T00:13:04.215Z,159343.19
2018-04-02T00:15:31.763Z,159345.14
2018-04-02T00:17:59.345Z,159310.67
2018-04-02T00:20:26.925Z,159323.67
2018-04-02T00:22:54.483Z,159319.78
2018-04-02T00:25:22.052Z,159313.27
2018-04-02T00:27:49.591Z,159306.14
2018-04-02T00:30:17.571Z,159263.88
2018-04-02T00:32:45.111Z,159232.06
2018-04-02T00:35:12.673Z,159213.83
2018-04-02T00:37:40.296Z,159177.44
2018-04-02T00:40:07.845Z,159153.41
2018-04-02T00:42:35.387Z,159130.66
2018-04-02T00:45:02.989Z,159092.34
2018-04-02T00:47:30.545Z,159063.13
2018-04-02T00:49:58.111Z,159041.69
2018-04-02T00:52:25.680Z,159028.69
2018-04-02T00:54:53.230Z,159018.30
2018-04-02T00:57:21.193Z,159002.72
2018-04-02T00:59:48.807Z,158989.73
2018-04-02T01:02:16.368Z,158983.22
2018-04-02T01:04:43.947Z,158987.09
2018-04-02T01:07:11.616Z,158962.44
2018-04-02T01:09:39.218Z,158949.44
2018-04-02T01:12:07.866Z,158945.56
2018-04-02T01:14:35.423Z,158968.94
2018-04-02T01:17:03.020Z,158937.11
2018-04-02T01:19:30.558Z,158923.47
2018-04-02T01:21:58.109Z,158907.27
2018-04-02T01:24:25.684Z,158924.77
2018-04-02T01:26:53.245Z,158945.56
2018-04-02T01:29:20.818Z,158925.41
2018-04-02T01:31:48.386Z,158881.94
2018-04-02T01:34:15.992Z,158947.50
2018-04-02T01:36:45.107Z,158883.89
2018-04-02T01:39:12.647Z,158946.86
2018-04-02T01:41:40.225Z,158913.08
2018-04-02T01:44:07.794Z,158892.98
2018-04-02T01:46:35.724Z,158844.25
2018-04-02T01:49:03.273Z,158871.55
2018-04-02T01:51:30.857Z,158843.61
2018-04-02T01:53:58.854Z,158854.64
2018-04-02T01:56:26.407Z,158829.33
2018-04-02T01:58:53.951Z,158801.44
2018-04-02T02:01:21.880Z,158784.58
2018-04-02T02:03:49.450Z,158817.00
2018-04-02T02:06:17.018Z,158798.86
2018-04-02T02:08:44.633Z,158759.23
2018-04-02T02:11:12.175Z,158746.89
2018-04-02T02:13:39.738Z,158750.19
2018-04-02T02:16:07.334Z,158750.83
2018-04-02T02:18:34.882Z,158736.56
2018-04-02T02:21:02.878Z,158735.22
2018-04-02T02:23:30.436Z,158732.62
2018-04-02T02:25:57.994Z,158791.05
2018-04-02T02:28:25.595Z,158735.22
2018-04-02T02:30:53.149Z,158703.45
2018-04-02T02:33:20.690Z,158689.83
2018-04-02T02:35:48.279Z,158673.58
2018-04-02T02:38:15.866Z,158669.06
2018-04-02T02:40:43.528Z,158715.78
2018-04-02T02:43:11.090Z,158679.44
2018-04-02T02:45:38.672Z,158658.66
2018-04-02T02:48:06.709Z,158676.86
2018-04-02T02:50:34.267Z,158661.91
2018-04-02T02:53:01.840Z,158668.41
2018-04-02T02:55:29.449Z,158665.83
2018-04-02T02:57:57.036Z,158659.97
2018-04-02T03:00:24.587Z,158679.44
2018-04-02T03:02:52.165Z,158700.86
2018-04-02T03:05:20.132Z,158732.62
2018-04-02T03:07:47.705Z,158724.23
2018-04-02T03:10:15.255Z,158683.31
2018-04-02T03:12:42.853Z,158735.91
2018-04-02T03:15:10.396Z,158826.75
2018-04-02T03:17:37.961Z,158739.78
2018-04-02T03:20:05.581Z,158702.81
2018-04-02T03:22:33.144Z,158677.50
2018-04-02T03:25:00.709Z,158665.83
2018-04-02T03:27:28.303Z,158668.41
2018-04-02T03:29:55.872Z,158652.86
2018-04-02T03:32:23.432Z,158646.34
2018-04-02T03:34:51.395Z,158652.20
2018-04-02T03:37:18.966Z,158753.41
2018-04-02T03:39:46.516Z,158789.75
2018-04-02T03:42:14.108Z,158742.38
2018-04-02T03:44:41.664Z,158740.44
2018-04-02T03:47:09.248Z,158719.66
2018-04-02T03:49:36.874Z,158690.47
2018-04-02T03:52:04.457Z,158673.58
2018-04-02T03:54:32.052Z,158669.06
2018-04-02T03:57:00.024Z,158683.97
2018-04-02T03:59:27.608Z,158731.98
2018-04-02T04:01:55.163Z,158722.89
2018-04-02T04:04:22.763Z,158698.88
2018-04-02T04:06:50.336Z,158692.41
2018-04-02T04:09:17.902Z,158671.64
2018-04-02T04:11:45.493Z,158650.86
2018-04-02T04:14:13.062Z,158643.11
2018-04-02T04:16:41.055Z,158639.23
2018-04-02T04:19:08.606Z,158691.77
2018-04-02T04:21:36.186Z,158776.78
2018-04-02T04:24:03.837Z,158785.88
2018-04-02T04:26:31.414Z,158861.81
2018-04-02T04:28:58.972Z,158875.44
2018-04-02T04:31:26.678Z,158849.47
2018-04-02T04:33:54.251Z,158826.75
2018-04-02T04:36:21.812Z,158837.78
2018-04-02T04:38:49.426Z,158848.19
2018-04-02T04:41:16.969Z,158907.91
2018-04-02T04:43:44.524Z,158878.02
2018-04-02T04:46:12.109Z,158900.75
2018-04-02T04:48:39.725Z,158952.67
2018-04-02T04:51:07.333Z,159004.02
2018-04-02T04:53:34.887Z,158916.31
2018-04-02T04:56:02.503Z,158954.02
2018-04-02T04:58:30.062Z,158911.78
2018-04-02T05:00:57.612Z,158900.75
2018-04-02T05:03:25.521Z,158902.69
2018-04-02T05:05:53.091Z,158945.56
2018-04-02T05:08:20.641Z,158958.55
2018-04-02T05:10:48.590Z,159094.92
2018-04-02T05:13:16.154Z,159135.23
2018-04-02T05:15:43.713Z,159147.58
2018-04-02T05:18:11.322Z,159149.53
2018-04-02T05:20:38.864Z,159126.78
2018-04-02T05:23:06.421Z,159151.47
2018-04-02T05:25:34.032Z,159157.28
2018-04-02T05:28:01.601Z,159173.56
2018-04-02T05:30:29.156Z,159259.98
2018-04-02T05:32:56.754Z,159302.22
2018-04-02T05:35:24.342Z,159338.61
2018-04-02T05:37:51.905Z,159341.91
2018-04-02T05:40:19.478Z,159324.31
2018-04-02T05:42:47.461Z,159271.69
2018-04-02T05:45:15.064Z,159267.11
2018-04-02T05:47:42.601Z,159283.39
2018-04-02T05:50:10.220Z,159346.44
2018-04-02T05:52:37.780Z,159290.52
2018-04-02T05:55:05.352Z,159305.50
2018-04-02T05:57:32.959Z,159363.97
2018-04-02T06:00:00.530Z,159393.25
2018-04-02T06:02:28.093Z,159329.55
2018-04-02T06:04:56.033Z,159337.31
2018-04-02T06:07:23.605Z,159391.95
2018-04-02T06:09:51.163Z,159495.33
2018-04-02T06:12:18.785Z,159393.25
2018-04-02T06:14:46.342Z,159475.19
2018-04-02T06:17:13.896Z,159445.25
2018-04-02T06:19:41.500Z,159473.20
2018-04-02T06:22:09.056Z,159466.08
2018-04-02T06:24:36.599Z,159462.84
2018-04-02T06:27:04.432Z,159485.56
2018-04-02T06:29:32.004Z,159508.33
2018-04-02T06:31:59.599Z,159578.59
2018-04-02T06:34:27.197Z,159540.22
2018-04-02T06:36:54.759Z,159553.88
2018-04-02T06:39:22.361Z,159692.48
2018-04-02T06:41:49.903Z,159658.64
2018-04-02T06:44:17.517Z,159701.56
2018-04-02T06:46:45.058Z,159698.31
2018-04-02T06:49:12.621Z,159663.17
2018-04-02T06:51:40.623Z,159815.48
2018-04-02T06:54:08.587Z,159758.19
2018-04-02T06:56:36.151Z,159661.88
2018-04-02T06:59:04.173Z,159673.59
2018-04-02T07:01:31.732Z,159676.19
2018-04-02T07:03:59.300Z,159747.78
2018-04-02T07:06:27.302Z,159805.72
2018-04-02T07:08:54.866Z,159745.83
2018-04-02T07:11:22.424Z,159747.13
2018-04-02T07:13:50.016Z,159780.33
2018-04-02T07:16:17.582Z,159877.33
2018-04-02T07:18:45.613Z,159922.28
2018-04-02T07:21:13.159Z,159996.52
2018-04-02T07:23:40.721Z,159950.91
2018-04-02T07:26:08.327Z,160040.13
2018-04-02T07:28:35.894Z,159956.75
2018-04-02T07:31:03.455Z,159982.14
2018-04-02T07:33:31.075Z,159993.22
2018-04-02T07:35:58.855Z,159975.66
2018-04-02T07:38:26.405Z,160083.78
2018-04-02T07:40:54.026Z,160111.78
2018-04-02T07:43:21.580Z,160049.25
2018-04-02T07:45:49.144Z,160202.39
2018-04-02T07:48:16.772Z,160426.66
2018-04-02T07:50:44.332Z,160231.69
2018-04-02T07:53:11.900Z,160167.19
2018-04-02T07:55:39.518Z,160129.41
2018-04-02T07:58:07.132Z,160077.91
2018-04-02T08:00:34.713Z,160107.91
2018-04-02T08:03:02.272Z,160149.56
2018-04-02T08:05:29.822Z,160317.73
2018-04-02T08:07:57.412Z,160278.62
2018-04-02T08:10:24.988Z,160259.70
2018-04-02T08:12:52.568Z,160272.09
2018-04-02T08:15:20.213Z,160233.64
2018-04-02T08:17:47.779Z,160251.27
2018-04-02T08:20:15.374Z,160341.84
2018-04-02T08:22:42.977Z,160324.92
2018-04-02T08:25:10.547Z,160402.55
2018-04-02T08:27:38.097Z,160398.64
2018-04-02T08:30:05.690Z,160317.73
2018-04-02T08:32:33.298Z,160400.59
2018-04-02T08:35:01.252Z,160461.89
2018-04-02T08:37:28.795Z,160417.53
2018-04-02T08:39:56.345Z,160461.89
2018-04-02T08:42:23.919Z,160614.55
2018-04-02T08:44:51.524Z,160484.72
2018-04-02T08:47:19.084Z,160494.52
2018-04-02T08:49:46.641Z,160456.69
2018-04-02T08:52:14.237Z,160546.03
2018-04-02T08:54:41.785Z,160591.06
2018-04-02T08:57:09.334Z,160618.44
2018-04-02T08:59:37.280Z,160593.66
2018-04-02T09:02:04.832Z,160705.88
2018-04-02T09:04:32.387Z,160557.78
2018-04-02T09:07:00.333Z,160581.91
2018-04-02T09:09:27.886Z,160568.88
2018-04-02T09:11:55.431Z,160673.88
2018-04-02T09:14:23.014Z,160731.97
2018-04-02T09:16:50.643Z,160712.42
2018-04-02T09:19:18.192Z,160680.44
2018-04-02T09:21:45.732Z,160726.13
2018-04-02T09:24:13.730Z,160718.27
2018-04-02T09:26:41.305Z,160647.13
2018-04-02T09:29:08.872Z,160745.67
2018-04-02T09:31:36.445Z,160803.77
2018-04-02T09:34:04.030Z,160756.77
2018-04-02T09:36:32.008Z,160755.47
2018-04-02T09:38:59.554Z,160745.02
2018-04-02T09:41:27.128Z,160814.22
2018-04-02T09:43:54.710Z,160767.87
2018-04-02T09:46:22.269Z,160830.53
2018-04-02T09:48:49.849Z,160747.67
2018-04-02T09:51:17.423Z,160746.31
2018-04-02T09:53:45.019Z,160701.97
2018-04-02T09:56:12.569Z,160710.42
2018-04-02T09:58:40.127Z,160742.42
2018-04-02T10:01:07.716Z,160787.47
2018-04-02T10:03:39.282Z,160827.28
2018-04-02T10:06:06.881Z,160850.13
2018-04-02T10:08:34.426Z,160886.03
2018-04-02T10:11:02.011Z,161001.00
2018-04-02T10:13:29.585Z,160959.83
2018-04-02T10:15:57.132Z,161049.98
2018-04-02T10:18:24.737Z,161059.78
2018-04-02T10:20:52.288Z,161072.84
2018-04-02T10:23:19.827Z,161153.22
2018-04-02T10:25:47.442Z,161083.31
2018-04-02T10:28:15.043Z,161194.38
2018-04-02T10:30:42.584Z,161221.16
2018-04-02T10:33:10.168Z,161279.33
2018-04-02T10:35:37.724Z,161341.42
2018-04-02T10:38:05.345Z,161300.27
2018-04-02T10:40:32.894Z,161316.59
2018-04-02T10:43:00.452Z,161358.45
2018-04-02T10:45:28.042Z,161357.80
2018-04-02T10:47:55.608Z,161474.84
2018-04-02T10:50:23.206Z,161272.17
2018-04-02T10:52:50.749Z,161332.97
2018-04-02T10:55:18.300Z,161473.55
2018-04-02T10:57:45.876Z,161468.28
2018-04-02T11:00:13.443Z,161395.72
2018-04-02T11:02:41.049Z,161340.13
2018-04-02T11:05:08.596Z,161344.08
2018-04-02T11:07:36.155Z,161360.41
2018-04-02T11:10:03.752Z,161327.70
2018-04-02T11:12:31.392Z,161421.86
2018-04-02T11:14:58.958Z,161411.39
2018-04-02T11:17:26.545Z,161433.62
2018-04-02T11:19:54.116Z,161472.84
2018-04-02T11:22:21.717Z,161493.84
2018-04-02T11:24:49.282Z,161525.20
2018-04-02T11:27:16.841Z,161451.25
2018-04-02T11:29:44.577Z,161455.22
2018-04-02T11:32:12.136Z,161542.23
2018-04-02T11:34:39.688Z,161419.25
2018-04-02T11:37:07.270Z,161432.33
2018-04-02T11:39:34.825Z,161460.42
2018-04-02T11:42:02.413Z,161482.06
2018-04-02T11:44:29.959Z,161487.94
2018-04-02T11:46:57.589Z,161497.09
2018-04-02T11:49:25.140Z,161509.52
2018-04-02T11:51:52.687Z,161589.98
2018-04-02T11:54:20.305Z,161723.45
2018-04-02T11:56:47.861Z,161582.13
2018-04-02T11:59:15.477Z,161654.73
2018-04-02T12:01:45.219Z,161569.69
2018-04-02T12:04:12.849Z,161584.72
2018-04-02T12:06:40.415Z,161642.31
2018-04-02T12:09:08.413Z,161596.50
2018-04-02T12:11:35.969Z,161663.91
2018-04-02T12:14:03.559Z,161675.69
2018-04-02T12:16:31.165Z,161697.94
2018-04-02T12:18:58.723Z,161764.66
2018-04-02T12:21:26.286Z,161820.31
2018-04-02T12:23:53.874Z,161794.78
2018-04-02T12:26:21.490Z,161765.97
2018-04-02T12:28:49.125Z,161708.36
2018-04-02T12:31:16.740Z,161697.28
2018-04-02T12:33:44.349Z,161699.89
2018-04-02T12:36:12.065Z,161743.70
2018-04-02T12:38:39.664Z,161693.33
2018-04-02T12:41:07.979Z,161764.66
2018-04-02T12:43:35.525Z,161669.77
2018-04-02T12:46:03.104Z,161709.06
2018-04-02T12:48:31.061Z,161689.42
2018-04-02T12:50:58.605Z,161635.09
2018-04-02T12:53:26.152Z,161689.42
2018-04-02T12:55:53.734Z,161597.81
2018-04-02T12:58:21.465Z,161655.39
2018-04-02T13:00:49.016Z,161637.75
2018-04-02T13:03:16.577Z,161650.83
2018-04-02T13:05:44.531Z,161656.03
2018-04-02T13:08:12.088Z,161710.37
2018-04-02T13:10:39.682Z,161758.14
2018-04-02T13:13:07.286Z,161715.58
2018-04-02T13:15:34.836Z,161783.66
2018-04-02T13:18:02.397Z,161830.78
2018-04-02T13:20:30.013Z,161858.27
2018-04-02T13:22:57.564Z,161896.28
2018-04-02T13:25:25.120Z,161876.56
2018-04-02T13:27:52.713Z,161957.81
2018-04-02T13:30:20.261Z,161928.38
2018-04-02T13:32:47.819Z,161829.44
2018-04-02T13:35:15.415Z,161863.48
2018-04-02T13:37:42.982Z,161845.19
2018-04-02T13:40:10.941Z,161953.91
2018-04-02T13:42:38.711Z,161947.33
2018-04-02T13:45:06.312Z,162124.81
2018-04-02T13:47:33.879Z,162004.97
2018-04-02T13:50:01.443Z,161987.91
2018-04-02T13:52:29.026Z,161999.05
2018-04-02T13:54:56.591Z,161921.16
2018-04-02T13:57:24.191Z,161919.84
2018-04-02T13:59:52.091Z,161936.84
2018-04-02T14:02:19.631Z,161831.44
2018-04-02T14:04:47.181Z,161883.84
2018-04-02T14:07:14.769Z,161902.14
2018-04-02T14:09:42.332Z,161940.81
2018-04-02T14:12:09.927Z,161925.06
2018-04-02T14:14:37.591Z,161984.00
2018-04-02T14:17:05.166Z,161957.16
2018-04-02T14:19:33.169Z,161945.38
2018-04-02T14:22:00.711Z,161884.50
2018-04-02T14:24:28.270Z,161870.70
2018-04-02T14:26:55.859Z,161815.70
2018-04-02T14:29:23.451Z,161769.92
2018-04-02T14:31:51.063Z,161751.58
2018-04-02T14:34:18.612Z,161762.05
2018-04-02T14:36:46.171Z,161727.36
2018-04-02T14:39:13.749Z,161767.27
2018-04-02T14:41:41.297Z,161771.22
2018-04-02T14:44:08.886Z,161750.27
2018-04-02T14:46:36.446Z,161837.95
2018-04-02T14:49:03.997Z,161848.44
2018-04-02T14:51:31.625Z,161837.95
2018-04-02T14:53:59.167Z,161773.19
2018-04-02T14:56:26.717Z,161817.00
2018-04-02T14:58:54.284Z,161801.31
2018-04-02T15:01:21.851Z,161756.14
2018-04-02T15:03:49.461Z,161762.05
2018-04-02T15:06:17.022Z,161776.44
2018-04-02T15:08:44.568Z,161756.14
2018-04-02T15:11:12.306Z,161661.30
2018-04-02T15:13:39.869Z,161679.59
2018-04-02T15:16:07.421Z,161697.94
2018-04-02T15:18:35.006Z,161753.53
2018-04-02T15:21:02.577Z,161815.05
2018-04-02T15:23:30.106Z,161814.39
2018-04-02T15:25:57.704Z,161830.78
2018-04-02T15:28:25.257Z,161790.17
2018-04-02T15:30:52.823Z,161754.83
2018-04-02T15:33:20.400Z,161762.05
2018-04-02T15:35:47.940Z,161769.22
2018-04-02T15:38:15.916Z,161775.78
2018-04-02T15:40:43.472Z,161752.88
2018-04-02T15:43:11.023Z,161748.97
2018-04-02T15:45:38.640Z,161742.41
2018-04-02T15:48:06.188Z,161726.70
2018-04-02T15:50:33.752Z,161680.89
2018-04-02T15:53:02.275Z,161656.03
2018-04-02T15:55:29.881Z,161665.86
2018-04-02T15:57:57.418Z,161676.34
2018-04-02T16:00:24.950Z,161642.31
2018-04-02T16:02:52.561Z,161648.22
2018-04-02T16:05:20.103Z,161642.31
2018-04-02T16:07:47.768Z,161656.03
2018-04-02T16:10:15.691Z,161663.25
2018-04-02T16:12:43.236Z,161669.77
2018-04-02T16:15:10.788Z,161695.28
2018-04-02T16:17:38.359Z,161682.20
2018-04-02T16:20:05.921Z,161699.25
2018-04-02T16:22:33.515Z,161698.59
2018-04-02T16:25:01.070Z,161682.86
2018-04-02T16:27:28.628Z,161703.16
2018-04-02T16:29:56.200Z,161690.72
2018-04-02T16:32:24.179Z,161688.13
2018-04-02T16:34:51.715Z,161711.03
2018-04-02T16:37:19.274Z,161733.94
2018-04-02T16:39:46.855Z,161748.31
2018-04-02T16:42:14.763Z,161743.70
2018-04-02T16:44:42.330Z,161718.19
2018-04-02T16:47:09.863Z,161728.67
2018-04-02T16:49:37.434Z,161712.97
2018-04-02T16:52:04.985Z,161828.78
2018-04-02T16:54:32.600Z,161872.00
2018-04-02T16:57:00.175Z,161853.00
2018-04-02T16:59:27.925Z,161780.34
2018-04-02T17:01:55.464Z,161788.22
2018-04-02T17:04:23.017Z,161789.53
2018-04-02T17:06:50.639Z,161813.73
2018-04-02T17:09:18.180Z,161716.89
2018-04-02T17:11:45.738Z,161780.34
2018-04-02T17:14:13.335Z,161773.19
2018-04-02T17:16:40.893Z,161718.84
2018-04-02T17:19:08.456Z,161762.70
2018-04-02T17:21:36.076Z,161812.44
2018-04-02T17:24:03.636Z,161710.37
2018-04-02T17:26:31.190Z,161658.66
2018-04-02T17:28:58.754Z,161665.22
2018-04-02T17:31:27.931Z,161668.47
2018-04-02T17:33:55.505Z,161654.73
2018-04-02T17:36:23.053Z,161663.91
2018-04-02T17:38:50.670Z,161674.38
2018-04-02T17:41:18.229Z,161629.22
2018-04-02T17:43:45.788Z,161588.03
2018-04-02T17:46:13.412Z,161607.63
2018-04-02T17:48:40.964Z,161571.66
2018-04-02T17:51:08.513Z,161569.69
2018-04-02T17:53:36.093Z,161596.50
2018-04-02T17:56:03.735Z,161597.81
2018-04-02T17:58:31.256Z,161503.00
2018-04-02T18:00:58.897Z,161461.72
2018-04-02T18:03:26.457Z,161446.70
2018-04-02T18:05:53.991Z,161455.22
2018-04-02T18:08:21.669Z,161437.53
2018-04-02T18:10:49.269Z,161444.09
2018-04-02T18:13:16.832Z,161440.14
2018-04-02T18:15:44.371Z,161458.47
2018-04-02T18:18:11.944Z,161453.91
2018-04-02T18:20:39.499Z,161455.22
2018-04-02T18:23:07.097Z,161442.14
2018-04-02T18:25:34.644Z,161450.61
2018-04-02T18:28:02.242Z,161438.19
2018-04-02T18:30:29.868Z,161430.38
2018-04-02T18:32:57.419Z,161436.23
2018-04-02T18:35:25.019Z,161400.27
2018-04-02T18:37:52.957Z,161406.83
2018-04-02T18:40:20.597Z,161429.06
2018-04-02T18:42:48.269Z,161442.80
2018-04-02T18:45:16.026Z,161432.97
2018-04-02T18:47:43.635Z,161421.86
2018-04-02T18:50:11.240Z,161425.77
2018-04-02T18:52:38.974Z,161440.14
2018-04-02T18:55:06.724Z,161446.05
2018-04-02T18:57:34.668Z,161433.62
2018-04-02T19:00:02.243Z,161423.16
2018-04-02T19:02:29.799Z,161445.39
2018-04-02T19:04:57.428Z,161443.44
2018-04-02T19:07:24.974Z,161455.22
2018-04-02T19:09:52.894Z,161448.66
2018-04-02T19:12:20.921Z,161429.06
2018-04-02T19:14:48.673Z,161462.37
2018-04-02T19:17:16.266Z,161454.56
2018-04-02T19:19:44.126Z,161455.22
2018-04-02T19:22:11.978Z,161490.58
2018-04-02T19:24:39.779Z,161497.09
2018-04-02T19:27:07.358Z,161495.80
2018-04-02T19:29:35.233Z,161502.36
2018-04-02T19:32:03.096Z,161486.63
2018-04-02T19:34:30.674Z,161489.23
2018-04-02T19:36:58.466Z,161463.69
2018-04-02T19:39:26.250Z,161451.25
2018-04-02T19:41:53.985Z,161443.44
2018-04-02T19:44:21.588Z,161435.58
2018-04-02T19:46:49.345Z,161440.84
2018-04-02T19:49:17.077Z,161455.22
2018-04-02T19:51:44.829Z,161406.19
2018-04-02T19:54:12.669Z,161415.30
2018-04-02T19:56:40.219Z,161397.66
2018-04-02T19:59:07.777Z,161389.16
2018-04-02T20:01:35.367Z,161370.22
2018-04-02T20:04:02.911Z,161368.92
2018-04-02T20:06:30.513Z,161357.16
2018-04-02T20:08:58.175Z,161374.13
2018-04-02T20:11:25.715Z,161340.78
2018-04-02T20:13:53.293Z,161331.66
2018-04-02T20:16:20.899Z,161347.98
2018-04-02T20:18:48.441Z,161325.75
2018-04-02T20:21:15.987Z,161320.55
2018-04-02T20:23:43.939Z,161332.31
2018-04-02T20:26:11.490Z,161301.56
2018-04-02T20:28:39.057Z,161287.84
2018-04-02T20:31:06.684Z,161349.94
2018-04-02T20:33:34.233Z,161293.70
2018-04-02T20:36:01.766Z,161298.31
2018-04-02T20:38:29.356Z,161307.47
2018-04-02T20:40:56.933Z,161303.52
2018-04-02T20:43:24.556Z,161275.42
2018-04-02T20:45:52.118Z,161268.22
2018-04-02T20:48:19.669Z,161284.59
2018-04-02T20:50:47.281Z,161306.83
2018-04-02T20:53:14.820Z,161273.47
2018-04-02T20:55:42.360Z,161286.55
2018-04-02T20:58:09.976Z,161284.59
2018-04-02T21:00:37.507Z,161289.14
2018-04-02T21:03:05.034Z,161245.34
2018-04-02T21:05:32.663Z,161263.66
2018-04-02T21:08:00.217Z,161258.45
2018-04-02T21:10:27.763Z,161235.58
2018-04-02T21:12:55.361Z,161244.69
2018-04-02T21:15:22.915Z,161226.41
2018-04-02T21:17:50.464Z,161212.69
2018-04-02T21:20:18.061Z,161221.86
2018-04-02T21:22:45.634Z,161200.28
2018-04-02T21:25:13.167Z,161206.78
2018-04-02T21:27:40.750Z,161210.09
2018-04-02T21:30:08.297Z,161196.33
2018-04-02T21:32:36.284Z,161201.58
2018-04-02T21:35:03.833Z,161209.44
2018-04-02T21:37:31.372Z,161200.28
2018-04-02T21:39:58.991Z,161161.09
2018-04-02T21:42:26.541Z,161170.20
2018-04-02T21:44:54.090Z,161178.70
2018-04-02T21:47:21.692Z,161213.34
2018-04-02T21:49:49.236Z,161217.91
2018-04-02T21:52:16.785Z,161196.97
2018-04-02T21:54:44.371Z,161162.39
2018-04-02T21:57:11.932Z,161174.80
2018-04-02T21:59:39.627Z,161178.70
2018-04-02T22:02:07.205Z,161177.41
2018-04-02T22:04:34.753Z,161163.69
2018-04-02T22:07:04.369Z,161144.06
2018-04-02T22:09:31.952Z,161180.02
2018-04-02T22:11:59.504Z,161150.63
2018-04-02T22:14:27.107Z,161153.22
2018-04-02T22:16:54.653Z,161149.97
2018-04-02T22:19:22.201Z,161153.87
2018-04-02T22:21:50.587Z,161129.05
2018-04-02T22:24:23.988Z,161127.09
2018-04-02T22:26:52.737Z,161132.31
2018-04-02T22:29:22.173Z,161141.47
2018-04-02T22:31:49.729Z,161129.05
2018-04-02T22:34:17.801Z,161146.67
2018-04-02T22:36:45.372Z,161155.83
2018-04-02T22:39:12.947Z,161161.09
2018-04-02T22:41:40.531Z,161141.47
2018-04-02T22:44:08.067Z,161154.53
2018-04-02T22:46:35.612Z,161148.67
2018-04-02T22:49:03.215Z,161217.25
2018-04-02T22:51:30.764Z,161251.89
2018-04-02T22:53:58.316Z,161172.16
2018-04-02T22:56:26.285Z,161196.97
2018-04-02T22:58:53.996Z,161218.56
2018-04-02T23:01:21.531Z,161246.69
2018-04-02T23:03:49.440Z,161227.06
2018-04-02T23:06:16.976Z,161255.16
2018-04-02T23:08:44.519Z,161278.03
2018-04-02T23:11:12.122Z,161257.75
2018-04-02T23:13:39.676Z,161249.30
2018-04-02T23:16:07.221Z,161287.19
2018-04-02T23:18:34.800Z,161281.28
2018-04-02T23:21:02.330Z,161264.97
2018-04-02T23:23:29.894Z,161221.86
2018-04-02T23:25:57.447Z,161262.36
2018-04-02T23:28:25.048Z,161261.06
2018-04-02T23:30:52.575Z,161264.97
2018-04-02T23:33:20.129Z,161230.31
2018-04-02T23:35:47.737Z,161262.36
2018-04-02T23:38:15.348Z,161240.78
2018-04-02T23:40:42.904Z,161243.39
2018-04-02T23:43:10.468Z,161270.88
2018-04-02T23:45:38.038Z,161287.19
2018-04-02T23:48:05.649Z,161279.98
2018-04-02T23:50:33.210Z,161275.42
2018-04-02T23:53:00.744Z,161299.61
2018-04-02T23:55:28.344Z,161289.80
2018-04-02T23:57:55.878Z,161321.19
